Time;durP1;ratioP1;P1;durP2;ratioP2;P2;SDS_P1;SDS_P2;PMS_P1;PMS_P2;Temp;Humidity;BMP_temperature;BMP_pressure;BME280_temperature;BME280_humidity;BME280_pressure;Samples;Min_cycle;Max_cycle;Signal;HPM_P1;HPM_P2
2024/04/10 00:00:13;;;;;;;5.60;2.35;;;12.70;99.90;;;;;;5448364;26;20226;-74
2024/04/10 00:02:43;;;;;;;10.10;1.92;;;12.70;99.90;;;;;;5446468;26;20253;-75
2024/04/10 00:05:09;;;;;;;5.18;1.20;;;12.70;99.90;;;;;;5448984;26;20277;-75
2024/04/10 00:07:36;;;;;;;8.55;1.30;;;12.70;99.90;;;;;;5436988;26;20552;-75
2024/04/10 00:10:03;;;;;;;8.65;1.33;;;12.70;99.90;;;;;;5449076;26;20230;-75
2024/04/10 00:12:29;;;;;;;7.90;1.13;;;12.70;99.90;;;;;;5442966;26;20559;-74
2024/04/10 00:14:56;;;;;;;4.45;1.33;;;12.70;99.90;;;;;;5408359;26;20293;-74
2024/04/10 00:17:26;;;;;;;6.30;1.40;;;12.70;99.90;;;;;;5436634;26;20561;-74
2024/04/10 00:19:53;;;;;;;4.90;1.20;;;12.70;99.90;;;;;;5440842;26;20235;-74
2024/04/10 00:22:19;;;;;;;4.25;1.35;;;12.70;99.90;;;;;;5444206;26;20331;-74
2024/04/10 00:24:45;;;;;;;4.57;1.10;;;12.70;99.90;;;;;;5440891;26;20341;-74
2024/04/10 00:27:13;;;;;;;3.58;1.00;;;12.70;99.90;;;;;;5445870;26;20614;-74
2024/04/10 00:29:40;;;;;;;8.70;2.78;;;12.70;99.90;;;;;;5445458;26;20242;-74
2024/04/10 00:32:06;;;;;;;4.35;1.10;;;12.70;99.90;;;;;;5448541;26;20263;-74
2024/04/10 00:34:32;;;;;;;6.38;2.15;;;12.70;99.90;;;;;;5448265;26;20230;-74
2024/04/10 00:36:59;;;;;;;7.40;1.45;;;12.70;99.90;;;;;;5448415;26;20281;-74
2024/04/10 00:39:27;;;;;;;3.60;1.15;;;12.70;99.90;;;;;;5443822;26;20257;-74
2024/04/10 00:41:53;;;;;;;3.88;1.20;;;12.70;99.90;;;;;;5446021;26;20238;-74
2024/04/10 00:44:19;;;;;;;9.10;1.65;;;12.60;99.90;;;;;;5452746;26;20226;-74
2024/04/10 00:46:47;;;;;;;7.55;1.83;;;12.70;99.90;;;;;;5450237;26;20600;-74
2024/04/10 00:49:13;;;;;;;4.35;1.42;;;12.60;99.90;;;;;;5450144;26;20222;-74
2024/04/10 00:51:39;;;;;;;6.47;1.35;;;12.70;99.90;;;;;;5450414;26;20566;-74
2024/04/10 00:54:07;;;;;;;6.68;1.38;;;12.60;99.90;;;;;;5451589;26;20606;-74
2024/04/10 00:56:33;;;;;;;10.43;1.75;;;12.60;99.90;;;;;;5449133;26;20225;-74
2024/04/10 00:59:02;;;;;;;10.65;1.80;;;12.60;99.90;;;;;;5425789;26;20269;-75
2024/04/10 01:01:28;;;;;;;4.70;1.25;;;12.60;99.90;;;;;;5435344;26;20227;-74
2024/04/10 01:03:54;;;;;;;12.25;2.05;;;12.60;99.90;;;;;;5432417;26;20294;-74
2024/04/10 01:06:29;;;;;;;4.15;1.20;;;12.60;99.90;;;;;;5463773;26;20229;-75
2024/04/10 01:08:55;;;;;;;4.57;1.52;;;12.60;99.90;;;;;;5407182;26;20597;-75
2024/04/10 01:11:22;;;;;;;6.90;1.48;;;12.60;99.90;;;;;;5436932;26;20285;-75
2024/04/10 01:13:48;;;;;;;9.63;2.10;;;12.60;99.90;;;;;;5446808;26;20339;-75
2024/04/10 01:16:14;;;;;;;8.60;1.90;;;12.60;99.90;;;;;;5413983;26;20277;-74
2024/04/10 01:18:40;;;;;;;7.55;1.25;;;12.60;99.90;;;;;;5441845;26;20314;-75
2024/04/10 01:21:06;;;;;;;9.82;1.50;;;12.60;99.90;;;;;;5440746;26;20269;-73
2024/04/10 01:23:33;;;;;;;4.93;1.17;;;12.50;99.90;;;;;;5450687;26;20293;-74
2024/04/10 01:25:59;;;;;;;7.45;1.23;;;12.50;99.90;;;;;;5451180;26;20226;-74
2024/04/10 01:28:25;;;;;;;5.38;1.30;;;12.40;99.90;;;;;;5449397;26;20289;-74
2024/04/10 01:30:51;;;;;;;7.13;1.30;;;12.30;99.90;;;;;;5449264;26;20234;-73
2024/04/10 01:33:17;;;;;;;6.13;1.42;;;12.30;99.90;;;;;;5461149;26;20242;-73
2024/04/10 01:35:43;;;;;;;5.97;1.20;;;12.20;99.90;;;;;;5442487;26;20613;-73
2024/04/10 01:38:09;;;;;;;9.55;1.30;;;12.10;99.90;;;;;;5448176;26;20237;-73
2024/04/10 01:40:35;;;;;;;2.85;0.85;;;12.00;99.90;;;;;;5447595;26;20241;-73
2024/04/10 01:43:02;;;;;;;4.32;1.00;;;12.00;99.90;;;;;;5445978;26;20278;-73
2024/04/10 01:45:28;;;;;;;7.32;1.73;;;11.90;99.90;;;;;;5450984;26;20275;-72
2024/04/10 01:47:54;;;;;;;6.55;1.85;;;11.80;99.90;;;;;;5419490;26;20230;-73
2024/04/10 01:50:20;;;;;;;7.30;1.23;;;11.70;99.90;;;;;;5450361;26;20893;-73
2024/04/10 01:52:46;;;;;;;4.90;1.10;;;11.70;99.90;;;;;;5441644;26;20290;-73
2024/04/10 01:55:12;;;;;;;6.28;1.10;;;11.60;99.90;;;;;;5447680;26;20226;-74
2024/04/10 01:57:38;;;;;;;6.47;1.17;;;11.60;99.90;;;;;;5424823;26;20268;-73
2024/04/10 02:00:06;;;;;;;8.23;1.25;;;11.50;99.90;;;;;;5439595;26;20595;-73
2024/04/10 02:02:36;;;;;;;7.35;1.80;;;11.50;99.90;;;;;;5450661;26;20241;-74
2024/04/10 02:05:03;;;;;;;6.20;1.30;;;11.40;99.90;;;;;;5450849;26;20234;-73
2024/04/10 02:07:30;;;;;;;9.07;3.17;;;11.40;99.90;;;;;;5450707;26;20225;-73
2024/04/10 02:09:56;;;;;;;8.93;1.52;;;11.40;99.90;;;;;;5449531;26;20265;-73
2024/04/10 02:12:22;;;;;;;5.53;1.00;;;11.30;99.90;;;;;;5448620;26;20229;-73
2024/04/10 02:14:48;;;;;;;8.13;1.65;;;11.30;99.90;;;;;;5448098;26;20226;-73
2024/04/10 02:17:14;;;;;;;8.80;1.65;;;11.20;99.90;;;;;;5448637;26;20245;-74
2024/04/10 02:19:41;;;;;;;7.28;1.23;;;11.20;99.90;;;;;;5450304;26;20230;-73
2024/04/10 02:22:07;;;;;;;6.72;1.20;;;11.20;99.90;;;;;;5444383;26;20218;-73
2024/04/10 02:24:34;;;;;;;5.00;2.08;;;11.10;99.90;;;;;;5450238;26;20221;-73
2024/04/10 02:27:00;;;;;;;5.32;1.30;;;11.10;99.90;;;;;;5450607;26;20226;-73
2024/04/10 02:29:30;;;;;;;8.45;1.67;;;11.10;99.90;;;;;;5442173;26;20235;-73
2024/04/10 02:31:57;;;;;;;7.30;1.52;;;11.00;99.90;;;;;;5450694;26;20230;-73
2024/04/10 02:34:23;;;;;;;8.43;1.55;;;11.00;99.90;;;;;;5442803;26;20280;-73
2024/04/10 02:36:49;;;;;;;7.68;1.88;;;10.90;99.90;;;;;;5447854;26;20254;-73
2024/04/10 02:39:15;;;;;;;7.45;1.95;;;10.90;99.90;;;;;;5437731;26;20290;-73
2024/04/10 02:41:41;;;;;;;6.13;1.25;;;10.90;99.90;;;;;;5447819;26;20221;-73
2024/04/10 02:44:07;;;;;;;7.30;1.63;;;10.90;99.90;;;;;;5450358;26;20646;-73
2024/04/10 02:46:33;;;;;;;5.13;1.08;;;10.80;99.90;;;;;;5449962;26;20296;-72
2024/04/10 02:48:59;;;;;;;7.90;1.33;;;10.80;99.90;;;;;;5449933;26;20671;-73
2024/04/10 02:51:25;;;;;;;9.95;1.50;;;10.80;99.90;;;;;;5442565;26;20270;-73
2024/04/10 02:53:52;;;;;;;6.78;1.48;;;10.80;99.90;;;;;;5447767;26;20583;-73
2024/04/10 02:56:20;;;;;;;4.10;0.90;;;10.80;99.90;;;;;;5442338;26;20755;-73
2024/04/10 02:58:47;;;;;;;8.68;1.48;;;10.70;99.90;;;;;;5447808;26;20234;-73
2024/04/10 03:01:13;;;;;;;9.02;1.63;;;10.70;99.90;;;;;;5441004;26;20231;-73
2024/04/10 03:03:39;;;;;;;6.55;1.20;;;10.60;99.90;;;;;;5446334;26;20260;-73
2024/04/10 03:06:07;;;;;;;6.43;1.85;;;10.60;99.90;;;;;;5449808;26;20286;-73
2024/04/10 03:08:35;;;;;;;5.30;1.45;;;10.60;99.90;;;;;;5443251;26;20230;-73
2024/04/10 03:11:04;;;;;;;6.80;1.50;;;10.60;99.90;;;;;;5449619;26;20263;-73
2024/04/10 03:13:32;;;;;;;6.63;1.50;;;10.60;99.90;;;;;;5450185;26;20238;-73
2024/04/10 03:15:58;;;;;;;7.53;2.33;;;10.50;99.90;;;;;;5383186;26;20739;-73
2024/04/10 03:18:24;;;;;;;9.20;1.80;;;10.50;99.90;;;;;;5442876;26;20226;-73
2024/04/10 03:22:09;;;;;;;5.53;1.20;;;10.50;99.90;;;;;;5522639;25;20716;-72
2024/04/10 03:24:35;;;;;;;5.05;1.10;;;10.50;99.90;;;;;;5467472;26;20260;-73
2024/04/10 03:27:02;;;;;;;8.45;1.50;;;10.40;99.90;;;;;;5467677;26;20825;-73
2024/04/10 03:29:28;;;;;;;4.10;0.98;;;10.40;99.90;;;;;;5466398;26;20268;-73
2024/04/10 03:31:54;;;;;;;8.68;1.60;;;10.30;99.90;;;;;;5453747;26;20229;-73
2024/04/10 03:34:20;;;;;;;6.25;1.00;;;10.30;99.90;;;;;;5474230;26;20268;-73
2024/04/10 03:36:46;;;;;;;7.25;1.20;;;10.30;99.90;;;;;;5468145;26;20302;-73
2024/04/10 03:39:13;;;;;;;5.50;1.10;;;10.30;99.90;;;;;;5467716;26;20586;-73
2024/04/10 03:41:39;;;;;;;8.45;1.58;;;10.30;99.90;;;;;;5466025;26;20233;-73
2024/04/10 03:44:05;;;;;;;4.68;1.20;;;10.30;99.90;;;;;;5497067;25;20583;-73
2024/04/10 03:46:32;;;;;;;5.35;1.60;;;10.20;99.90;;;;;;5468318;26;20297;-73
2024/04/10 03:48:59;;;;;;;12.18;1.40;;;10.20;99.90;;;;;;5466170;26;20501;-73
2024/04/10 03:51:25;;;;;;;6.68;1.65;;;10.20;99.90;;;;;;5468061;26;20288;-73
2024/04/10 03:53:51;;;;;;;4.70;1.25;;;10.20;99.90;;;;;;5457206;26;20281;-73
2024/04/10 03:56:18;;;;;;;7.20;2.38;;;10.20;99.90;;;;;;5453241;26;20233;-73
2024/04/10 03:58:49;;;;;;;5.38;1.52;;;10.20;99.90;;;;;;5453183;26;20256;-72
2024/04/10 04:01:17;;;;;;;9.23;1.75;;;10.20;99.90;;;;;;5467957;26;20268;-73
2024/04/10 04:03:43;;;;;;;6.05;1.10;;;10.30;99.90;;;;;;5460083;26;20596;-73
2024/04/10 04:06:10;;;;;;;4.65;1.63;;;10.30;99.90;;;;;;5464568;26;20268;-73
2024/04/10 04:08:36;;;;;;;6.53;1.55;;;10.30;99.90;;;;;;5467899;26;20229;-73
2024/04/10 04:11:04;;;;;;;9.52;1.52;;;10.30;99.90;;;;;;5459436;26;20274;-73
2024/04/10 04:13:31;;;;;;;7.35;1.40;;;10.30;99.90;;;;;;5452120;26;20796;-73
2024/04/10 04:15:57;;;;;;;6.80;2.20;;;10.30;99.90;;;;;;5467339;26;20716;-73
2024/04/10 04:18:24;;;;;;;8.65;1.60;;;10.20;99.90;;;;;;5467637;26;20273;-73
2024/04/10 04:20:50;;;;;;;9.48;1.20;;;10.20;99.90;;;;;;5434600;26;20237;-74
2024/04/10 04:23:17;;;;;;;12.63;1.90;;;10.20;99.90;;;;;;5459866;26;20716;-73
2024/04/10 04:25:43;;;;;;;9.02;1.92;;;10.20;99.90;;;;;;5465361;26;20647;-72
2024/04/10 04:28:09;;;;;;;14.98;2.20;;;10.20;99.90;;;;;;5459677;26;20280;-73
2024/04/10 04:30:35;;;;;;;12.90;1.55;;;10.20;99.90;;;;;;5465018;26;20260;-73
2024/04/10 04:33:01;;;;;;;4.95;1.10;;;10.20;99.90;;;;;;5445205;26;20286;-72
2024/04/10 04:35:27;;;;;;;9.93;1.90;;;10.10;99.90;;;;;;5445002;26;20279;-73
2024/04/10 04:37:57;;;;;;;5.40;1.50;;;10.10;99.90;;;;;;5451743;26;20280;-73
2024/04/10 04:40:30;;;;;;;7.07;1.65;;;10.10;99.90;;;;;;5443753;26;20226;-73
2024/04/10 04:42:58;;;;;;;9.57;1.85;;;10.10;99.90;;;;;;5452556;26;20226;-72
2024/04/10 04:45:24;;;;;;;3.53;1.40;;;10.10;99.90;;;;;;5433460;26;20736;-73
2024/04/10 04:47:50;;;;;;;6.25;1.92;;;10.10;99.90;;;;;;5448430;26;20230;-73
2024/04/10 04:50:17;;;;;;;6.47;1.77;;;10.10;99.90;;;;;;5450000;26;20234;-73
2024/04/10 04:52:43;;;;;;;4.57;1.30;;;10.00;99.90;;;;;;5450088;26;20238;-73
2024/04/10 04:55:09;;;;;;;3.95;1.17;;;10.00;99.90;;;;;;5458946;26;20290;-73
2024/04/10 04:57:35;;;;;;;9.32;1.35;;;10.00;99.90;;;;;;5450195;26;20716;-73
2024/04/10 05:00:11;;;;;;;8.65;2.20;;;10.00;99.90;;;;;;5449889;26;20267;-72
2024/04/10 05:02:39;;;;;;;5.55;1.73;;;10.00;99.90;;;;;;5471279;26;20606;-75
2024/04/10 05:05:11;;;;;;;4.80;0.90;;;10.00;99.90;;;;;;5450589;26;20340;-75
2024/04/10 05:07:38;;;;;;;4.68;1.42;;;10.00;99.90;;;;;;5432014;26;20223;-74
2024/04/10 05:10:05;;;;;;;5.70;1.83;;;10.00;99.90;;;;;;5451394;26;20293;-74
2024/04/10 05:12:32;;;;;;;11.63;2.42;;;10.00;99.90;;;;;;5454398;26;20229;-75
2024/04/10 05:14:58;;;;;;;7.68;1.88;;;10.00;99.90;;;;;;5464981;26;20226;-75
2024/04/10 05:17:25;;;;;;;7.97;1.30;;;10.00;99.90;;;;;;5449342;26;20242;-75
2024/04/10 05:19:51;;;;;;;5.05;1.23;;;10.00;99.90;;;;;;5447108;26;20226;-75
2024/04/10 05:22:17;;;;;;;7.10;1.55;;;10.00;99.90;;;;;;5445577;26;20252;-74
2024/04/10 05:24:44;;;;;;;6.95;1.60;;;10.10;99.90;;;;;;5450960;26;20673;-75
2024/04/10 05:27:21;;;;;;;6.55;1.48;;;10.10;99.90;;;;;;5451517;26;20256;-75
2024/04/10 05:29:53;;;;;;;7.95;1.60;;;10.10;99.90;;;;;;5450746;26;20300;-75
2024/04/10 05:32:19;;;;;;;4.28;1.20;;;10.10;99.90;;;;;;5445151;26;20237;-75
2024/04/10 05:34:46;;;;;;;5.68;1.48;;;10.20;99.90;;;;;;5454693;26;20225;-75
2024/04/10 05:37:12;;;;;;;13.80;1.60;;;10.20;99.90;;;;;;5454667;26;20294;-75
2024/04/10 05:39:38;;;;;;;9.00;2.20;;;10.30;99.90;;;;;;5424145;26;20285;-75
2024/04/10 05:42:06;;;;;;;7.97;2.28;;;10.30;99.90;;;;;;5441740;26;20229;-75
2024/04/10 05:44:33;;;;;;;8.80;1.80;;;10.40;99.90;;;;;;5425223;26;20661;-74
2024/04/10 05:47:01;;;;;;;10.23;1.90;;;10.40;99.90;;;;;;5452740;26;20229;-74
2024/04/10 05:49:29;;;;;;;6.35;1.30;;;10.50;99.90;;;;;;5440494;26;20277;-75
2024/04/10 05:51:55;;;;;;;8.13;1.30;;;10.60;99.90;;;;;;5442892;26;20230;-74
2024/04/10 05:54:21;;;;;;;14.98;2.17;;;10.70;99.90;;;;;;5431323;26;20266;-74
2024/04/10 05:56:47;;;;;;;6.00;1.48;;;10.80;99.90;;;;;;5434836;26;20230;-74
2024/04/10 05:59:14;;;;;;;5.25;1.10;;;10.90;99.90;;;;;;5448409;26;20594;-74
2024/04/10 06:01:40;;;;;;;16.77;2.22;;;11.00;99.90;;;;;;5426162;26;20615;-74
2024/04/10 06:04:07;;;;;;;6.43;1.70;;;11.10;99.90;;;;;;5453827;26;20642;-74
2024/04/10 06:06:33;;;;;;;6.45;1.52;;;11.30;99.90;;;;;;5450118;26;20280;-74
2024/04/10 06:08:59;;;;;;;7.60;1.60;;;11.40;99.90;;;;;;5428652;26;20253;-74
2024/04/10 06:11:29;;;;;;;6.13;1.58;;;11.50;99.90;;;;;;5438163;26;20780;-74
2024/04/10 06:13:59;;;;;;;10.20;1.95;;;11.60;99.90;;;;;;5436303;26;20630;-74
2024/04/10 06:16:25;;;;;;;6.50;1.48;;;11.70;99.90;;;;;;5448641;26;20226;-74
2024/04/10 06:18:51;;;;;;;8.82;1.75;;;11.80;99.90;;;;;;5449768;26;20281;-74
2024/04/10 06:21:18;;;;;;;8.18;2.00;;;11.90;99.90;;;;;;5446772;26;20260;-76
2024/04/10 06:23:45;;;;;;;9.55;1.98;;;12.00;99.90;;;;;;5424223;26;20276;-73
2024/04/10 06:26:11;;;;;;;9.27;2.90;;;12.10;99.90;;;;;;5446606;26;20225;-74
2024/04/10 06:28:37;;;;;;;7.70;1.63;;;12.20;99.90;;;;;;5442096;26;20230;-73
2024/04/10 06:31:06;;;;;;;7.88;2.15;;;12.30;99.90;;;;;;5461645;26;20596;-73
2024/04/10 06:33:32;;;;;;;8.52;1.60;;;12.40;99.90;;;;;;5408760;26;20269;-74
2024/04/10 06:36:03;;;;;;;10.10;2.20;;;12.50;99.90;;;;;;5442487;26;20839;-74
2024/04/10 06:38:32;;;;;;;7.60;1.63;;;12.60;99.90;;;;;;5457549;26;20265;-74
2024/04/10 06:41:00;;;;;;;7.82;1.70;;;12.70;99.90;;;;;;5416331;26;20231;-74
2024/04/10 06:43:27;;;;;;;7.25;1.75;;;12.70;99.90;;;;;;5446868;26;20277;-73
2024/04/10 06:46:02;;;;;;;11.48;3.15;;;12.80;99.90;;;;;;5446468;26;20290;-73
2024/04/10 06:48:29;;;;;;;8.10;1.75;;;12.80;99.90;;;;;;5445689;26;20229;-73
2024/04/10 06:50:56;;;;;;;7.32;2.15;;;12.90;99.90;;;;;;5448716;26;20230;-74
2024/04/10 06:53:23;;;;;;;5.97;1.15;;;12.90;99.90;;;;;;5449005;26;20298;-73
2024/04/10 06:55:55;;;;;;;6.13;1.55;;;13.00;99.90;;;;;;5449940;26;20318;-73
2024/04/10 06:58:21;;;;;;;6.57;1.48;;;13.10;99.90;;;;;;5442606;26;20287;-73
2024/04/10 07:00:58;;;;;;;12.55;2.38;;;13.10;99.90;;;;;;5456372;26;20292;-73
2024/04/10 07:03:28;;;;;;;10.70;1.60;;;13.10;99.90;;;;;;5418233;26;20330;-73
2024/04/10 07:06:09;;;;;;;10.60;1.80;;;13.20;99.90;;;;;;5456236;26;20233;-74
2024/04/10 07:08:38;;;;;;;6.35;1.67;;;13.20;99.90;;;;;;5445564;26;20239;-74
2024/04/10 07:11:05;;;;;;;7.35;1.67;;;13.30;99.90;;;;;;5436933;26;20226;-74
2024/04/10 07:13:34;;;;;;;6.00;1.67;;;13.30;99.90;;;;;;5435388;26;20294;-74
2024/04/10 07:16:02;;;;;;;8.30;1.70;;;13.40;99.90;;;;;;5427091;26;20547;-74
2024/04/10 07:18:31;;;;;;;6.17;1.57;;;13.40;99.90;;;;;;5433858;26;20561;-74
2024/04/10 07:21:02;;;;;;;7.07;2.75;;;13.50;99.90;;;;;;5448598;26;20944;-73
2024/04/10 07:23:28;;;;;;;8.50;2.58;;;13.50;99.90;;;;;;5447279;26;20704;-73
2024/04/10 07:25:56;;;;;;;7.83;1.60;;;13.60;99.90;;;;;;5443587;26;20704;-73
2024/04/10 07:28:22;;;;;;;7.53;2.05;;;13.60;99.90;;;;;;5458398;26;20585;-73
2024/04/10 07:30:49;;;;;;;8.77;1.97;;;13.70;99.90;;;;;;5448454;26;20694;-73
2024/04/10 07:33:16;;;;;;;6.50;2.10;;;13.70;99.90;;;;;;5442255;26;20596;-73
2024/04/10 07:35:43;;;;;;;6.73;1.83;;;13.80;99.90;;;;;;5438382;26;20587;-74
2024/04/10 07:38:09;;;;;;;9.67;1.73;;;13.80;99.90;;;;;;5460405;26;20607;-74
2024/04/10 07:40:36;;;;;;;4.97;2.23;;;13.90;99.90;;;;;;5436152;26;20571;-73
2024/04/10 07:43:02;;;;;;;10.57;2.33;;;14.10;99.90;;;;;;5425009;26;20560;-73
2024/04/10 07:45:28;;;;;;;8.00;1.60;;;14.30;99.90;;;;;;5448529;26;20595;-74
2024/04/10 07:47:54;;;;;;;6.70;1.77;;;14.50;99.90;;;;;;5473412;26;20547;-73
2024/04/10 07:50:21;;;;;;;14.10;3.53;;;14.70;99.90;;;;;;5399383;26;20628;-73
2024/04/10 07:52:47;;;;;;;12.90;3.07;;;14.80;99.90;;;;;;5441250;26;20633;-73
2024/04/10 07:55:13;;;;;;;6.50;1.97;;;14.90;99.90;;;;;;5462447;26;20533;-73
2024/04/10 07:57:40;;;;;;;12.03;2.83;;;15.10;99.90;;;;;;5439701;26;20608;-73
2024/04/10 08:00:08;;;;;;;8.90;2.57;;;15.20;99.90;;;;;;5446523;26;20592;-73
2024/04/10 08:02:37;;;;;;;10.37;2.10;;;15.40;99.90;;;;;;5446761;26;20559;-74
2024/04/10 08:05:04;;;;;;;9.27;1.90;;;15.50;99.90;;;;;;5446652;26;21162;-73
2024/04/10 08:07:30;;;;;;;5.40;1.67;;;15.60;99.90;;;;;;5449066;26;20953;-73
2024/04/10 08:09:56;;;;;;;9.00;1.43;;;15.60;99.90;;;;;;5384239;26;20675;-73
2024/04/10 08:12:22;;;;;;;5.53;1.50;;;15.60;99.90;;;;;;5443491;26;20557;-73
2024/04/10 08:14:51;;;;;;;5.00;2.00;;;15.60;99.90;;;;;;5452026;26;20520;-73
2024/04/10 08:17:17;;;;;;;7.83;1.70;;;15.50;99.90;;;;;;5450767;26;21089;-73
2024/04/10 08:19:46;;;;;;;8.30;2.03;;;15.50;99.90;;;;;;5451628;26;20580;-73
2024/04/10 08:22:13;;;;;;;7.40;1.90;;;15.50;99.90;;;;;;5452557;26;20870;-73
2024/04/10 08:24:40;;;;;;;4.27;1.43;;;15.60;99.90;;;;;;5457460;26;20610;-73
2024/04/10 08:27:06;;;;;;;8.23;1.60;;;15.60;99.90;;;;;;5450858;26;20543;-73
2024/04/10 08:29:32;;;;;;;4.70;2.03;;;15.70;99.90;;;;;;5451845;26;20628;-73
2024/04/10 08:31:59;;;;;;;5.63;1.57;;;15.80;99.90;;;;;;5427025;26;20668;-73
2024/04/10 08:34:25;;;;;;;9.03;2.30;;;15.90;99.90;;;;;;5432155;26;20580;-73
2024/04/10 08:36:52;;;;;;;6.17;1.80;;;16.10;99.90;;;;;;5447218;26;20620;-73
2024/04/10 08:39:18;;;;;;;7.73;2.13;;;16.40;99.90;;;;;;5455692;26;20586;-73
2024/04/10 08:41:45;;;;;;;15.67;2.00;;;16.70;99.90;;;;;;5448796;26;20527;-73
2024/04/10 08:44:11;;;;;;;9.43;2.10;;;17.30;99.90;;;;;;5443496;26;20564;-73
2024/04/10 08:46:39;;;;;;;7.30;1.83;;;18.30;99.90;;;;;;5459214;26;20558;-74
2024/04/10 08:49:06;;;;;;;5.80;1.23;;;19.50;99.90;;;;;;5452273;26;20614;-73
2024/04/10 08:51:33;;;;;;;5.30;1.40;;;20.80;99.90;;;;;;5449417;26;20591;-73
2024/04/10 08:54:00;;;;;;;7.10;1.90;;;22.20;99.90;;;;;;5446196;26;20642;-73
2024/04/10 08:56:26;;;;;;;6.60;1.27;;;23.40;99.90;;;;;;5449529;26;20601;-73
2024/04/10 08:58:55;;;;;;;4.33;1.17;;;24.30;99.90;;;;;;5451133;26;20523;-73
2024/04/10 09:01:27;;;;;;;7.30;1.53;;;25.10;99.90;;;;;;5443618;26;20592;-73
2024/04/10 09:03:54;;;;;;;3.73;1.20;;;25.80;99.90;;;;;;5444631;26;20661;-73
2024/04/10 09:06:21;;;;;;;5.13;1.27;;;26.50;99.90;;;;;;5451418;26;20611;-73
2024/04/10 09:08:57;;;;;;;5.00;2.00;;;27.20;99.90;;;;;;5453297;26;20568;-74
2024/04/10 09:11:23;;;;;;;4.67;1.30;;;28.00;99.90;;;;;;5431198;26;20598;-73
2024/04/10 09:14:06;;;;;;;5.00;1.20;;;28.60;99.90;;;;;;5450899;26;20556;-73
2024/04/10 09:16:33;;;;;;;7.13;1.27;;;29.40;99.90;;;;;;5451489;26;20585;-73
2024/04/10 09:19:16;;;;;;;6.20;1.30;;;30.00;99.90;;;;;;5448118;26;20596;-73
2024/04/10 09:21:44;;;;;;;3.57;1.23;;;30.00;93.30;;;;;;5451408;26;20607;-73
2024/04/10 09:24:15;;;;;;;3.47;1.00;;;29.70;92.90;;;;;;5451086;26;20676;-73
2024/04/10 09:26:43;;;;;;;4.60;1.17;;;29.30;90.50;;;;;;5451179;26;20535;-73
2024/04/10 09:29:12;;;;;;;4.30;1.00;;;29.40;90.70;;;;;;5450570;26;20678;-73
2024/04/10 09:31:39;;;;;;;4.33;1.27;;;29.50;90.50;;;;;;5451023;26;20584;-73
2024/04/10 09:34:10;;;;;;;5.47;1.70;;;29.90;90.40;;;;;;5449518;26;20998;-73
2024/04/10 09:36:37;;;;;;;5.03;1.97;;;30.30;88.50;;;;;;5443023;26;20530;-74
2024/04/10 09:39:06;;;;;;;5.10;0.97;;;30.80;88.40;;;;;;5457390;26;20566;-73
2024/04/10 09:41:36;;;;;;;4.00;1.30;;;31.30;86.80;;;;;;5429583;26;20544;-74
2024/04/10 09:44:06;;;;;;;3.57;1.50;;;31.70;83.80;;;;;;5450515;26;20581;-71
2024/04/10 09:46:37;;;;;;;4.73;1.40;;;32.00;81.20;;;;;;5445765;26;20545;-73
2024/04/10 09:49:12;;;;;;;2.50;1.00;;;32.20;74.20;;;;;;5450303;26;20554;-74
2024/04/10 09:51:40;;;;;;;4.50;1.50;;;32.10;72.00;;;;;;5449200;26;20624;-71
2024/04/10 09:54:12;;;;;;;4.10;1.30;;;32.20;73.30;;;;;;5443585;26;20666;-71
2024/04/10 09:56:41;;;;;;;4.23;1.60;;;32.60;71.50;;;;;;5429383;26;20549;-73
2024/04/10 09:59:10;;;;;;;4.13;1.77;;;32.80;70.00;;;;;;5442354;26;20628;-71
2024/04/10 10:01:39;;;;;;;4.93;1.40;;;32.80;66.70;;;;;;5448127;26;20935;-71
2024/04/10 10:04:06;;;;;;;4.67;1.20;;;32.50;64.70;;;;;;5448680;26;20585;-73
2024/04/10 10:06:34;;;;;;;4.00;1.50;;;31.80;61.50;;;;;;5450396;26;20621;-73
2024/04/10 10:09:00;;;;;;;3.90;1.00;;;31.20;59.80;;;;;;5448979;26;20607;-73
2024/04/10 10:11:27;;;;;;;3.30;1.43;;;30.70;60.20;;;;;;5430557;26;20646;-74
2024/04/10 10:14:02;;;;;;;6.10;1.47;;;30.40;59.90;;;;;;5448341;26;20668;-73
2024/04/10 10:16:33;;;;;;;3.43;1.00;;;30.30;59.30;;;;;;5412941;26;20596;-73
2024/04/10 10:19:00;;;;;;;2.43;0.90;;;30.00;59.20;;;;;;5431618;26;20606;-73
2024/04/10 10:21:29;;;;;;;2.83;0.90;;;29.50;58.60;;;;;;5438147;26;20598;-74
2024/04/10 10:24:06;;;;;;;5.40;0.97;;;28.80;58.20;;;;;;5427791;26;20559;-73
2024/04/10 10:26:33;;;;;;;2.53;0.90;;;28.00;56.30;;;;;;5437837;26;20536;-74
2024/04/10 10:29:03;;;;;;;5.90;1.20;;;27.30;57.20;;;;;;5449571;26;20576;-74
2024/04/10 10:31:29;;;;;;;5.07;0.90;;;26.90;58.20;;;;;;5449462;26;20584;-75
2024/04/10 10:34:05;;;;;;;4.37;1.17;;;27.00;59.90;;;;;;5462387;26;20703;-74
2024/04/10 10:36:32;;;;;;;4.20;1.10;;;27.10;60.00;;;;;;5439585;26;20555;-74
2024/04/10 10:39:08;;;;;;;3.73;0.90;;;27.00;59.80;;;;;;5461347;26;20985;-75
2024/04/10 10:41:35;;;;;;;3.40;0.73;;;26.70;58.10;;;;;;5429823;26;20528;-75
2024/04/10 10:44:01;;;;;;;4.40;1.23;;;26.10;57.50;;;;;;5448128;26;20718;-74
2024/04/10 10:46:28;;;;;;;3.20;1.20;;;25.50;57.40;;;;;;5445763;26;20535;-74
2024/04/10 10:48:54;;;;;;;3.87;1.00;;;25.00;56.90;;;;;;5434624;26;20863;-74
2024/04/10 10:51:23;;;;;;;6.73;1.10;;;24.50;57.40;;;;;;5434511;26;20619;-74
2024/04/10 10:53:50;;;;;;;5.37;0.90;;;24.30;58.90;;;;;;5418218;26;20563;-74
2024/04/10 10:56:26;;;;;;;4.77;1.10;;;24.40;60.90;;;;;;5449455;26;20527;-74
2024/04/10 10:58:53;;;;;;;4.10;0.90;;;24.70;61.80;;;;;;5447851;26;20611;-75
2024/04/10 11:01:20;;;;;;;3.23;0.83;;;25.00;63.40;;;;;;5448827;26;20614;-75
2024/04/10 11:03:47;;;;;;;3.10;1.07;;;25.30;62.50;;;;;;5449365;26;20568;-74
2024/04/10 11:06:15;;;;;;;4.63;1.50;;;25.70;61.90;;;;;;5449608;26;20649;-74
2024/04/10 11:08:41;;;;;;;3.80;1.30;;;25.90;62.00;;;;;;5451811;26;20589;-75
2024/04/10 11:11:07;;;;;;;2.00;0.90;;;26.30;62.40;;;;;;5442695;26;20588;-75
2024/04/10 11:13:34;;;;;;;3.83;0.80;;;26.70;61.70;;;;;;5478167;26;20573;-75
2024/04/10 11:16:01;;;;;;;3.23;1.40;;;27.20;62.50;;;;;;5442648;26;20620;-74
2024/04/10 11:18:27;;;;;;;3.50;1.73;;;27.50;59.70;;;;;;5449429;26;20531;-74
2024/04/10 11:20:53;;;;;;;4.60;1.00;;;27.70;58.90;;;;;;5446604;26;20631;-75
2024/04/10 11:23:20;;;;;;;2.87;0.90;;;27.90;59.00;;;;;;5449594;26;20567;-74
2024/04/10 11:25:46;;;;;;;3.40;1.00;;;28.10;58.10;;;;;;5441688;26;20587;-74
2024/04/10 11:28:13;;;;;;;4.50;0.97;;;28.10;57.20;;;;;;5447277;26;21107;-75
2024/04/10 11:30:39;;;;;;;3.27;0.90;;;28.00;56.70;;;;;;5435077;26;20612;-74
2024/04/10 11:33:08;;;;;;;2.37;0.93;;;27.80;55.80;;;;;;5449096;26;21036;-74
2024/04/10 11:35:39;;;;;;;2.67;0.90;;;27.50;55.40;;;;;;5447721;26;20935;-74
2024/04/10 11:38:05;;;;;;;3.40;1.00;;;27.40;54.60;;;;;;5455275;26;20560;-74
2024/04/10 11:40:32;;;;;;;5.87;1.13;;;27.20;54.40;;;;;;5428483;26;20623;-75
2024/04/10 11:42:58;;;;;;;2.23;0.87;;;27.10;54.00;;;;;;5415209;26;20559;-74
2024/04/10 11:45:25;;;;;;;4.25;1.70;;;27.00;55.00;;;;;;5452083;26;20957;-74
2024/04/10 11:47:52;;;;;;;4.33;0.90;;;27.10;52.80;;;;;;5449320;26;20273;-74
2024/04/10 11:50:20;;;;;;;1.97;0.80;;;27.20;54.80;;;;;;5450108;26;20559;-74
2024/04/10 11:52:47;;;;;;;5.63;1.10;;;27.40;55.20;;;;;;5441510;26;20629;-74
2024/04/10 11:55:14;;;;;;;5.20;0.95;;;27.60;54.40;;;;;;5433545;26;20906;-74
2024/04/10 11:57:41;;;;;;;2.90;0.90;;;27.70;54.40;;;;;;5422440;26;20226;-74
2024/04/10 12:00:09;;;;;;;3.13;0.70;;;27.90;54.60;;;;;;5452067;26;20588;-74
2024/04/10 12:02:42;;;;;;;3.77;0.90;;;27.90;53.80;;;;;;5452395;26;20632;-74
2024/04/10 12:05:08;;;;;;;5.60;1.20;;;27.80;52.30;;;;;;5417294;26;20591;-74
2024/04/10 12:07:34;;;;;;;4.13;0.80;;;27.40;51.40;;;;;;5447727;26;20954;-74
2024/04/10 12:10:01;;;;;;;5.37;1.30;;;26.90;50.40;;;;;;5450131;26;20611;-74
2024/04/10 12:12:28;;;;;;;3.63;1.30;;;26.40;50.70;;;;;;5454177;26;20523;-74
2024/04/10 12:14:55;;;;;;;1.97;0.80;;;26.00;50.80;;;;;;5453900;26;20539;-74
2024/04/10 12:17:21;;;;;;;2.73;0.90;;;25.70;51.50;;;;;;5451909;26;21468;-74
2024/04/10 12:19:47;;;;;;;2.83;0.90;;;25.50;52.30;;;;;;5455550;26;20540;-74
2024/04/10 12:22:13;;;;;;;1.93;0.90;;;25.50;53.10;;;;;;5454412;26;20511;-74
2024/04/10 12:24:39;;;;;;;3.63;1.10;;;25.50;53.00;;;;;;5445147;26;20592;-74
2024/04/10 12:27:06;;;;;;;3.43;0.97;;;25.30;51.90;;;;;;5450527;26;20947;-74
2024/04/10 12:29:32;;;;;;;5.17;1.10;;;25.00;51.40;;;;;;5452762;26;20874;-74
2024/04/10 12:31:59;;;;;;;4.53;1.20;;;24.70;51.00;;;;;;5452411;26;20624;-74
2024/04/10 12:34:25;;;;;;;3.70;0.90;;;24.30;50.80;;;;;;5452021;26;20628;-74
2024/04/10 12:39:36;;;;;;;4.03;0.83;;;23.50;50.30;;;;;;5419722;26;20589;-73
2024/04/10 12:42:04;;;;;;;3.03;1.10;;;23.00;50.30;;;;;;5449029;26;20591;-74
2024/04/10 12:44:30;;;;;;;2.93;0.90;;;22.70;50.60;;;;;;5401426;26;20584;-74
2024/04/10 12:46:58;;;;;;;4.87;1.17;;;22.40;51.50;;;;;;5444243;26;20606;-74
2024/04/10 12:49:28;;;;;;;3.07;1.10;;;22.20;51.20;;;;;;5480050;26;20917;-73